Time;durP1;ratioP1;P1;durP2;ratioP2;P2;SDS_P1;SDS_P2;PMS_P1;PMS_P2;Temp;Humidity;BMP_temperature;BMP_pressure;BME280_temperature;BME280_humidity;BME280_pressure;Samples;Min_cycle;Max_cycle;Signal;HPM_P1;HPM_P2
2022/09/27 00:00:27;;;;;;;6.28;1.20;;;10.70;99.90;;;;;;5059899;28;20037;-75
2022/09/27 00:02:52;;;;;;;8.20;1.23;;;10.70;99.90;;;;;;5069668;28;20043;-75
2022/09/27 00:05:18;;;;;;;5.75;1.00;;;10.70;99.90;;;;;;5073040;28;20045;-75
2022/09/27 00:07:44;;;;;;;3.80;0.70;;;10.70;99.90;;;;;;5070308;28;20033;-75
2022/09/27 00:10:10;;;;;;;5.18;0.90;;;10.60;99.90;;;;;;5070243;28;20036;-75
2022/09/27 00:12:37;;;;;;;2.58;0.98;;;10.60;99.90;;;;;;5070741;28;20445;-75
2022/09/27 00:15:03;;;;;;;6.00;1.00;;;10.60;99.90;;;;;;5071069;28;20076;-75
2022/09/27 00:17:29;;;;;;;5.85;1.00;;;10.50;99.90;;;;;;5066657;28;20049;-75
2022/09/27 00:19:57;;;;;;;5.13;1.10;;;10.40;99.90;;;;;;5067363;28;20036;-75
2022/09/27 00:22:24;;;;;;;3.75;0.68;;;10.40;99.90;;;;;;5070400;28;20090;-75
2022/09/27 00:24:50;;;;;;;3.17;1.00;;;10.40;99.90;;;;;;5063977;28;20499;-75
2022/09/27 00:27:16;;;;;;;5.72;0.80;;;10.40;99.90;;;;;;5068897;28;20402;-75
2022/09/27 00:29:42;;;;;;;4.30;0.90;;;10.30;99.90;;;;;;5067249;28;20066;-75
2022/09/27 00:32:08;;;;;;;3.30;0.98;;;10.30;99.90;;;;;;5054041;28;20044;-75
2022/09/27 00:34:34;;;;;;;5.25;1.00;;;10.30;99.90;;;;;;5072482;28;20063;-75
2022/09/27 00:36:59;;;;;;;3.65;1.05;;;10.30;99.90;;;;;;5070539;28;20045;-75
2022/09/27 00:39:25;;;;;;;4.38;0.80;;;10.30;99.90;;;;;;5077364;28;20051;-75
2022/09/27 00:41:51;;;;;;;2.10;0.63;;;10.30;99.90;;;;;;5069782;28;20060;-75
2022/09/27 00:44:32;;;;;;;3.15;0.65;;;10.30;99.90;;;;;;5070920;28;20037;-75
2022/09/27 00:47:12;;;;;;;3.45;0.82;;;10.20;99.90;;;;;;5067683;28;20040;-75
2022/09/27 00:49:50;;;;;;;4.35;1.00;;;10.30;99.90;;;;;;5068462;28;20390;-75
2022/09/27 00:52:24;;;;;;;2.83;0.60;;;10.30;99.90;;;;;;5065869;28;20032;-75
2022/09/27 00:54:56;;;;;;;2.38;0.73;;;10.30;99.90;;;;;;5068361;28;20044;-75
2022/09/27 00:57:22;;;;;;;1.88;0.70;;;10.30;99.90;;;;;;5071497;28;20044;-75
2022/09/27 01:00:02;;;;;;;3.40;0.73;;;10.40;99.90;;;;;;5068342;28;20048;-75
2022/09/27 01:02:28;;;;;;;1.90;0.60;;;10.70;99.90;;;;;;5051477;28;20043;-75
2022/09/27 01:04:55;;;;;;;1.80;0.60;;;10.40;99.90;;;;;;5069789;28;20047;-75
2022/09/27 01:07:21;;;;;;;4.25;0.93;;;10.40;99.90;;;;;;5066900;28;20037;-75
2022/09/27 01:09:47;;;;;;;2.25;0.85;;;10.40;99.90;;;;;;5066048;28;20568;-75
2022/09/27 01:12:41;;;;;;;6.53;1.27;;;10.40;99.90;;;;;;5067775;28;20112;-75
2022/09/27 01:15:34;;;;;;;4.97;0.73;;;10.40;99.90;;;;;;5070825;28;20090;-75
2022/09/27 01:18:18;;;;;;;6.20;0.90;;;10.40;99.90;;;;;;5068783;28;20250;-75
2022/09/27 01:21:02;;;;;;;4.03;0.90;;;10.40;99.90;;;;;;5060307;28;20044;-75
2022/09/27 01:23:49;;;;;;;1.92;0.50;;;10.40;99.90;;;;;;5064115;28;20037;-75
2022/09/27 01:26:42;;;;;;;4.93;1.02;;;10.40;99.90;;;;;;5050720;28;20132;-75
2022/09/27 01:29:16;;;;;;;1.10;0.60;;;10.50;99.90;;;;;;5078353;28;20048;-75
2022/09/27 01:32:05;;;;;;;3.13;0.80;;;10.40;99.90;;;;;;5060796;28;20430;-75
2022/09/27 01:34:58;;;;;;;1.15;0.40;;;10.40;99.90;;;;;;5069348;28;20390;-75
2022/09/27 01:37:40;;;;;;;2.70;0.90;;;10.40;99.90;;;;;;5069003;28;20555;-75
2022/09/27 01:40:30;;;;;;;4.20;0.70;;;10.40;99.90;;;;;;5068877;28;20036;-75
2022/09/27 01:43:22;;;;;;;2.75;0.52;;;10.30;99.90;;;;;;5066268;28;20529;-75
2022/09/27 01:45:58;;;;;;;3.77;0.90;;;10.30;99.90;;;;;;5055846;28;20052;-75
2022/09/27 01:48:47;;;;;;;2.25;0.93;;;10.30;99.90;;;;;;5068853;28;20033;-75
2022/09/27 01:51:19;;;;;;;6.20;0.80;;;10.30;99.90;;;;;;5040197;28;20032;-75
2022/09/27 01:53:59;;;;;;;3.75;0.77;;;10.20;99.90;;;;;;5069613;28;20044;-75
2022/09/27 01:56:53;;;;;;;2.42;0.70;;;10.20;99.90;;;;;;5045927;28;20490;-75
2022/09/27 01:59:28;;;;;;;3.15;1.10;;;10.20;99.90;;;;;;5061585;28;20049;-75
2022/09/27 02:01:58;;;;;;;1.77;0.65;;;10.20;99.90;;;;;;5068409;28;20506;-75
2022/09/27 02:04:29;;;;;;;3.40;0.70;;;10.20;99.90;;;;;;5069636;28;20050;-75
2022/09/27 02:07:18;;;;;;;1.98;0.50;;;10.10;99.90;;;;;;5064532;28;20502;-75
2022/09/27 02:09:49;;;;;;;3.33;0.85;;;10.10;99.90;;;;;;5068722;28;20529;-75
2022/09/27 02:12:24;;;;;;;2.67;1.02;;;10.10;99.90;;;;;;5069329;28;20036;-75
2022/09/27 02:15:00;;;;;;;5.35;0.90;;;10.20;99.90;;;;;;5069962;28;20428;-75
2022/09/27 02:17:52;;;;;;;3.58;1.30;;;10.10;99.90;;;;;;5066782;28;20044;-75
2022/09/27 02:20:38;;;;;;;2.97;0.50;;;10.10;99.90;;;;;;5057124;28;20532;-75
2022/09/27 02:23:22;;;;;;;3.22;0.88;;;10.10;99.90;;;;;;5062191;28;20521;-75
2022/09/27 02:25:59;;;;;;;5.75;0.60;;;10.00;99.90;;;;;;5063784;28;20033;-75
2022/09/27 02:28:27;;;;;;;2.80;0.90;;;10.10;99.90;;;;;;5070511;28;20025;-75
2022/09/27 02:30:54;;;;;;;2.90;0.50;;;10.00;99.90;;;;;;5071089;28;20348;-75
2022/09/27 02:33:25;;;;;;;4.35;0.60;;;10.00;99.90;;;;;;5063422;28;20037;-76
2022/09/27 02:35:50;;;;;;;2.55;0.73;;;10.10;99.90;;;;;;5063454;28;20098;-75
2022/09/27 02:38:16;;;;;;;2.75;0.63;;;10.10;99.90;;;;;;5063793;28;20037;-75
2022/09/27 02:40:44;;;;;;;3.97;0.60;;;10.10;99.90;;;;;;5067794;28;20483;-75
2022/09/27 02:43:12;;;;;;;2.40;0.55;;;10.10;99.90;;;;;;5065177;28;20037;-75
2022/09/27 02:46:06;;;;;;;2.53;0.80;;;10.10;99.90;;;;;;5063193;28;20041;-75
2022/09/27 02:48:50;;;;;;;4.38;0.80;;;10.00;99.90;;;;;;5066174;28;20045;-75
2022/09/27 02:51:37;;;;;;;2.80;0.63;;;10.10;99.90;;;;;;5071682;28;20071;-75
2022/09/27 02:54:09;;;;;;;1.33;0.43;;;10.00;99.90;;;;;;5060476;28;20039;-75
2022/09/27 02:56:56;;;;;;;1.30;0.40;;;10.10;99.90;;;;;;5069315;28;20040;-75
2022/09/27 02:59:45;;;;;;;0.98;0.28;;;10.00;99.90;;;;;;5062849;28;20274;-75
2022/09/27 03:02:31;;;;;;;1.85;0.40;;;10.10;99.90;;;;;;5065620;28;20048;-75
2022/09/27 03:05:29;;;;;;;3.00;0.80;;;10.00;99.90;;;;;;5068416;28;20043;-75
2022/09/27 03:07:55;;;;;;;2.42;0.60;;;10.00;99.90;;;;;;5048046;28;20040;-75
2022/09/27 03:10:24;;;;;;;2.15;0.85;;;10.00;99.90;;;;;;5061992;28;20033;-75
2022/09/27 03:12:50;;;;;;;1.50;0.57;;;10.00;99.90;;;;;;5060906;28;20036;-75
2022/09/27 03:15:15;;;;;;;2.03;0.70;;;10.00;99.90;;;;;;5069032;28;20490;-75
2022/09/27 03:17:41;;;;;;;3.22;0.55;;;10.00;99.90;;;;;;5066480;28;20486;-75
2022/09/27 03:20:07;;;;;;;1.42;0.60;;;10.00;99.90;;;;;;5067808;28;20075;-75
2022/09/27 03:22:34;;;;;;;4.40;0.60;;;9.90;99.90;;;;;;5058783;28;20499;-75
2022/09/27 03:25:00;;;;;;;3.42;0.55;;;10.00;99.90;;;;;;5067127;28;20041;-75
2022/09/27 03:27:25;;;;;;;4.13;0.50;;;9.90;99.90;;;;;;5064469;28;20078;-75
2022/09/27 03:29:51;;;;;;;3.67;0.40;;;10.00;99.90;;;;;;5060415;28;20037;-75
2022/09/27 03:32:17;;;;;;;1.73;0.60;;;9.90;99.90;;;;;;5064118;28;20036;-75
2022/09/27 03:34:43;;;;;;;2.35;0.50;;;9.90;99.90;;;;;;5074804;28;20090;-75
2022/09/27 03:37:08;;;;;;;0.98;0.40;;;9.90;99.90;;;;;;5067790;28;20036;-75
2022/09/27 03:39:34;;;;;;;1.67;0.60;;;9.90;99.90;;;;;;5085127;28;20066;-75
2022/09/27 03:41:59;;;;;;;1.67;0.40;;;9.90;99.90;;;;;;5064944;28;20490;-75
2022/09/27 03:44:25;;;;;;;1.63;0.30;;;9.90;99.90;;;;;;5063033;28;20052;-75
2022/09/27 03:46:51;;;;;;;1.33;0.35;;;9.90;99.90;;;;;;5081232;28;20443;-76
2022/09/27 03:49:16;;;;;;;1.75;0.45;;;9.90;99.90;;;;;;5065902;28;20037;-76
2022/09/27 03:51:42;;;;;;;2.22;0.65;;;9.80;99.90;;;;;;5069752;28;20123;-75
2022/09/27 03:54:08;;;;;;;1.35;0.52;;;9.80;99.90;;;;;;5071692;28;20041;-76
2022/09/27 03:56:34;;;;;;;5.65;0.80;;;9.80;99.90;;;;;;5077387;28;20041;-75
2022/09/27 03:59:00;;;;;;;1.85;0.50;;;9.80;99.90;;;;;;5071704;28;20383;-76
2022/09/27 04:01:26;;;;;;;5.07;0.63;;;9.80;99.90;;;;;;5071197;28;20032;-75
2022/09/27 04:03:52;;;;;;;4.03;1.15;;;9.70;99.90;;;;;;5065637;28;20174;-75
2022/09/27 04:06:18;;;;;;;3.83;0.80;;;9.70;99.90;;;;;;5067259;28;20058;-75
2022/09/27 04:08:44;;;;;;;2.00;0.60;;;9.70;99.90;;;;;;5071662;28;20123;-75
2022/09/27 04:11:10;;;;;;;2.17;0.63;;;9.70;99.90;;;;;;5070620;28;20494;-75
2022/09/27 04:13:36;;;;;;;2.38;0.50;;;9.70;99.90;;;;;;5075409;28;20036;-75
2022/09/27 04:16:01;;;;;;;2.20;0.60;;;9.60;99.90;;;;;;5067888;28;20414;-75
2022/09/27 04:18:27;;;;;;;4.72;0.85;;;9.60;99.90;;;;;;5068859;28;20044;-75
2022/09/27 04:20:53;;;;;;;1.85;0.65;;;9.60;99.90;;;;;;5067364;28;20040;-75
2022/09/27 04:23:19;;;;;;;1.75;0.47;;;9.50;99.90;;;;;;5071038;28;20044;-75
2022/09/27 04:25:45;;;;;;;1.55;0.60;;;9.50;99.90;;;;;;5068030;28;20079;-75
2022/09/27 04:28:11;;;;;;;3.90;0.50;;;9.50;99.90;;;;;;5051326;28;20043;-75
2022/09/27 04:30:37;;;;;;;2.15;0.80;;;9.50;99.90;;;;;;5070435;28;20045;-75
2022/09/27 04:33:03;;;;;;;2.67;0.77;;;9.50;99.90;;;;;;5062503;28;20047;-76
2022/09/27 04:38:13;;;;;;;1.55;0.60;;;9.50;99.90;;;;;;5064903;28;20041;-76
2022/09/27 04:40:40;;;;;;;2.28;0.65;;;9.40;99.90;;;;;;5060314;28;20041;-76
2022/09/27 04:43:06;;;;;;;2.33;0.43;;;9.40;99.90;;;;;;5069522;28;20111;-75
2022/09/27 04:45:32;;;;;;;1.48;0.60;;;9.40;99.90;;;;;;5064267;28;20136;-75
2022/09/27 04:47:58;;;;;;;2.17;0.70;;;9.40;99.90;;;;;;5068443;28;20072;-76
2022/09/27 04:50:23;;;;;;;2.72;0.60;;;9.40;99.90;;;;;;5071015;28;20451;-75
2022/09/27 04:52:51;;;;;;;1.48;0.50;;;9.30;99.90;;;;;;5070378;28;20037;-76
2022/09/27 04:55:17;;;;;;;1.30;0.50;;;9.30;99.90;;;;;;5070479;28;20040;-75
2022/09/27 04:57:42;;;;;;;3.40;0.52;;;9.30;99.90;;;;;;5060698;28;20048;-75
2022/09/27 05:00:08;;;;;;;1.40;0.68;;;9.30;99.90;;;;;;5070658;28;20036;-75
2022/09/27 05:02:34;;;;;;;4.63;1.25;;;9.20;99.90;;;;;;5076079;28;20351;-74
2022/09/27 05:05:00;;;;;;;2.05;0.70;;;9.20;99.90;;;;;;5069533;28;20047;-75
2022/09/27 05:07:26;;;;;;;1.73;0.40;;;9.20;99.90;;;;;;5065786;28;20071;-76
2022/09/27 05:09:52;;;;;;;2.97;0.70;;;9.10;99.90;;;;;;5066739;28;20036;-75
2022/09/27 05:12:18;;;;;;;3.72;0.75;;;9.10;99.90;;;;;;5066615;28;20406;-75
2022/09/27 05:14:44;;;;;;;4.82;0.63;;;9.10;99.90;;;;;;5067493;28;20040;-75
2022/09/27 05:17:11;;;;;;;4.13;0.77;;;9.10;99.90;;;;;;5067827;28;20040;-75
2022/09/27 05:19:38;;;;;;;2.88;0.70;;;9.00;99.90;;;;;;5068930;28;20432;-76
2022/09/27 05:22:05;;;;;;;5.47;0.82;;;9.00;99.90;;;;;;5069067;28;20045;-76
2022/09/27 05:24:32;;;;;;;1.65;0.50;;;9.00;99.90;;;;;;5067419;28;20509;-75
2022/09/27 05:26:58;;;;;;;3.70;0.73;;;9.00;99.90;;;;;;5069882;28;20536;-74
2022/09/27 05:29:24;;;;;;;2.92;0.65;;;8.90;99.90;;;;;;5052562;28;20511;-75
2022/09/27 05:31:49;;;;;;;1.73;0.68;;;9.00;99.90;;;;;;5022819;28;20045;-75
2022/09/27 05:34:16;;;;;;;2.28;0.68;;;8.90;99.90;;;;;;5026109;28;20065;-75
2022/09/27 05:36:42;;;;;;;4.72;0.80;;;8.90;99.90;;;;;;5021295;28;20064;-75
2022/09/27 05:39:08;;;;;;;3.13;0.80;;;8.90;99.90;;;;;;5039413;28;20037;-77
2022/09/27 05:41:34;;;;;;;5.88;0.95;;;8.80;99.90;;;;;;5022270;28;20028;-75
2022/09/27 05:44:00;;;;;;;1.35;0.65;;;8.80;99.90;;;;;;5019224;28;20117;-75
2022/09/27 05:46:25;;;;;;;3.10;0.90;;;8.80;99.90;;;;;;5029632;28;20045;-75
2022/09/27 05:48:51;;;;;;;3.03;0.85;;;8.80;99.90;;;;;;5037779;28;20037;-76
2022/09/27 05:51:18;;;;;;;7.57;0.85;;;8.80;99.90;;;;;;5033358;28;20037;-76
2022/09/27 05:53:43;;;;;;;4.13;0.90;;;8.80;99.90;;;;;;5033220;28;20044;-76
2022/09/27 05:56:09;;;;;;;3.08;0.88;;;8.80;99.90;;;;;;5043907;28;20052;-76
2022/09/27 05:58:34;;;;;;;5.97;0.90;;;8.80;99.90;;;;;;5031060;28;20041;-75
2022/09/27 06:01:00;;;;;;;2.08;0.68;;;8.80;99.90;;;;;;5033259;28;20041;-76
2022/09/27 06:03:26;;;;;;;3.38;0.75;;;8.90;99.90;;;;;;5033153;28;20399;-75
2022/09/27 06:05:51;;;;;;;3.80;0.88;;;8.80;99.90;;;;;;5033359;28;20041;-77
2022/09/27 06:08:19;;;;;;;3.58;1.15;;;8.80;99.90;;;;;;5032832;28;20337;-75
2022/09/27 06:10:46;;;;;;;5.85;1.00;;;8.80;99.90;;;;;;5032195;28;20041;-75
2022/09/27 06:13:14;;;;;;;5.38;1.15;;;8.80;99.90;;;;;;5032521;28;20048;-75
2022/09/27 06:15:41;;;;;;;5.10;1.30;;;9.30;99.90;;;;;;5033083;28;20056;-76
2022/09/27 06:18:13;;;;;;;2.53;0.75;;;8.80;99.90;;;;;;5031801;28;20120;-74
2022/09/27 06:20:40;;;;;;;4.57;1.00;;;8.80;99.90;;;;;;5032300;28;20112;-75
2022/09/27 06:23:12;;;;;;;5.35;0.88;;;8.80;99.90;;;;;;5032408;28;20076;-75
2022/09/27 06:25:38;;;;;;;2.60;0.80;;;8.80;99.90;;;;;;5045738;28;20432;-75
2022/09/27 06:28:04;;;;;;;2.22;0.82;;;8.80;99.90;;;;;;5033045;28;20116;-74
2022/09/27 06:30:31;;;;;;;2.58;0.85;;;8.80;99.90;;;;;;5051980;28;20171;-75
2022/09/27 06:33:01;;;;;;;4.90;1.10;;;8.80;99.90;;;;;;5056550;28;20046;-75
2022/09/27 06:35:28;;;;;;;4.20;0.70;;;8.80;99.90;;;;;;5057879;28;20037;-75
2022/09/27 06:37:54;;;;;;;3.83;0.75;;;8.80;99.90;;;;;;5066196;28;20466;-75
2022/09/27 06:40:21;;;;;;;4.35;1.08;;;8.80;99.90;;;;;;5069425;28;20040;-75
2022/09/27 06:42:48;;;;;;;3.53;0.75;;;8.80;99.90;;;;;;5069172;28;20502;-75
2022/09/27 06:45:14;;;;;;;2.05;0.90;;;8.90;99.90;;;;;;5057753;28;20115;-74
2022/09/27 06:47:39;;;;;;;3.45;0.95;;;8.90;99.90;;;;;;5064256;28;20458;-75
2022/09/27 06:50:05;;;;;;;3.00;0.77;;;8.90;99.90;;;;;;5068717;28;20040;-75
2022/09/27 06:52:32;;;;;;;5.22;0.63;;;9.00;99.90;;;;;;5066414;28;20086;-75
2022/09/27 06:54:58;;;;;;;3.80;0.80;;;9.00;99.90;;;;;;5068388;28;20044;-74
2022/09/27 07:00:22;;;;;;;2.80;0.90;;;9.20;99.90;;;;;;5070404;28;20413;-75
2022/09/27 07:02:49;;;;;;;5.07;0.80;;;9.30;99.90;;;;;;5069366;28;20072;-74
2022/09/27 07:05:15;;;;;;;4.68;0.93;;;9.30;99.90;;;;;;5066091;28;20049;-75
2022/09/27 07:07:42;;;;;;;5.50;0.93;;;9.40;99.90;;;;;;5067560;28;20032;-75
2022/09/27 07:10:09;;;;;;;3.03;0.75;;;9.40;99.90;;;;;;5066472;28;20132;-75
2022/09/27 07:12:36;;;;;;;2.92;0.60;;;9.50;99.90;;;;;;5063069;28;20029;-75
2022/09/27 07:15:03;;;;;;;3.28;0.60;;;9.50;99.90;;;;;;5070677;28;20044;-75
2022/09/27 07:17:28;;;;;;;1.40;0.45;;;9.60;99.90;;;;;;5063126;28;20418;-75
2022/09/27 07:19:54;;;;;;;3.17;0.75;;;9.60;99.90;;;;;;5068894;28;20040;-75
2022/09/27 07:22:20;;;;;;;3.63;0.55;;;9.60;99.90;;;;;;5070151;28;20036;-75
2022/09/27 07:24:45;;;;;;;2.42;0.70;;;9.70;99.90;;;;;;5069194;28;20090;-75
2022/09/27 07:27:11;;;;;;;2.03;0.68;;;9.80;99.90;;;;;;5070707;28;20075;-75
2022/09/27 07:29:37;;;;;;;5.55;0.70;;;9.80;99.90;;;;;;5072533;28;20051;-75
2022/09/27 07:32:03;;;;;;;4.22;0.70;;;9.90;99.90;;;;;;5072368;28;20174;-75
2022/09/27 07:34:28;;;;;;;2.70;0.50;;;10.00;99.90;;;;;;5066681;28;20029;-75
2022/09/27 07:37:04;;;;;;;1.90;0.60;;;10.10;99.90;;;;;;5067906;28;20386;-75
2022/09/27 07:39:30;;;;;;;7.38;1.00;;;10.10;99.90;;;;;;5068936;28;20372;-75
2022/09/27 07:41:57;;;;;;;2.92;0.60;;;10.10;99.90;;;;;;5073612;28;20028;-74
2022/09/27 07:44:22;;;;;;;3.00;0.43;;;10.20;99.90;;;;;;5070154;28;20037;-75
2022/09/27 07:46:48;;;;;;;1.80;0.50;;;10.20;99.90;;;;;;5061400;28;20086;-75
2022/09/27 07:49:14;;;;;;;1.70;0.52;;;10.30;99.90;;;;;;5069938;28;20043;-75
2022/09/27 07:51:39;;;;;;;3.28;0.80;;;10.30;99.90;;;;;;5061413;28;20044;-75
2022/09/27 07:54:05;;;;;;;3.35;0.50;;;10.40;99.90;;;;;;5069478;28;20384;-75
2022/09/27 07:56:31;;;;;;;3.63;1.23;;;10.50;99.90;;;;;;5065169;28;20037;-75
2022/09/27 07:58:57;;;;;;;3.33;0.43;;;10.60;99.90;;;;;;5066775;28;20474;-75
2022/09/27 08:01:22;;;;;;;1.65;0.30;;;10.60;99.90;;;;;;5072273;28;20414;-75
2022/09/27 08:03:48;;;;;;;3.42;0.43;;;10.70;99.90;;;;;;5071899;28;20041;-75
2022/09/27 08:06:14;;;;;;;2.33;0.82;;;10.70;99.90;;;;;;5072081;28;20036;-75
2022/09/27 08:08:40;;;;;;;1.58;0.50;;;10.90;99.90;;;;;;5071230;28;20128;-75
2022/09/27 08:11:14;;;;;;;3.13;0.70;;;10.90;99.90;;;;;;5071647;28;20032;-75
2022/09/27 08:13:44;;;;;;;1.52;0.40;;;10.90;99.90;;;;;;5063526;28;20045;-75
2022/09/27 08:16:10;;;;;;;4.00;0.70;;;10.90;99.90;;;;;;5069321;28;20131;-75
2022/09/27 08:18:36;;;;;;;2.70;0.30;;;11.00;99.90;;;;;;5060285;28;20505;-75
2022/09/27 08:21:02;;;;;;;2.65;0.50;;;11.00;99.90;;;;;;5071868;28;20048;-75
2022/09/27 08:23:28;;;;;;;2.38;0.60;;;11.10;99.90;;;;;;5069864;28;20039;-75
2022/09/27 08:25:56;;;;;;;1.65;0.47;;;11.10;99.90;;;;;;5070422;28;20411;-75
2022/09/27 08:28:22;;;;;;;3.50;0.52;;;11.20;99.90;;;;;;5071764;28;20419;-75
2022/09/27 08:30:48;;;;;;;1.27;0.43;;;11.30;99.90;;;;;;5071984;28;20079;-75
2022/09/27 08:33:14;;;;;;;2.15;0.68;;;11.40;99.90;;;;;;5071847;28;20064;-75
2022/09/27 08:35:39;;;;;;;1.98;0.45;;;11.40;99.90;;;;;;5071072;28;20113;-75
2022/09/27 08:38:05;;;;;;;3.13;0.65;;;11.50;99.90;;;;;;5070336;28;20048;-76
2022/09/27 08:40:45;;;;;;;3.03;0.52;;;11.60;99.90;;;;;;5069171;28;20087;-76
2022/09/27 08:43:23;;;;;;;2.65;0.50;;;11.60;99.90;;;;;;5065119;28;20059;-75
2022/09/27 08:46:18;;;;;;;1.80;0.45;;;11.50;99.90;;;;;;5069983;28;20079;-74
2022/09/27 08:48:49;;;;;;;2.63;0.40;;;11.50;99.90;;;;;;5070976;28;20127;-75
2022/09/27 08:51:15;;;;;;;3.15;0.50;;;11.50;99.90;;;;;;5069477;28;20401;-75
2022/09/27 08:54:04;;;;;;;4.82;0.77;;;11.50;99.90;;;;;;5054808;28;20432;-75
2022/09/27 08:56:30;;;;;;;2.85;0.50;;;11.40;99.90;;;;;;5059553;28;20045;-75
2022/09/27 08:59:15;;;;;;;1.02;0.40;;;11.40;99.90;;;;;;5068356;28;20124;-76
2022/09/27 09:01:42;;;;;;;0.57;0.30;;;11.40;99.90;;;;;;5070932;28;20498;-76
2022/09/27 09:04:09;;;;;;;1.77;0.75;;;11.50;99.90;;;;;;5071289;28;20153;-75
2022/09/27 09:06:52;;;;;;;1.48;0.45;;;11.50;99.90;;;;;;5066114;28;20049;-76
2022/09/27 09:09:35;;;;;;;2.33;0.57;;;11.50;99.90;;;;;;5066854;28;20044;-76
2022/09/27 09:15:23;;;;;;;0.90;0.40;;;11.70;99.90;;;;;;5070681;28;20059;-75
2022/09/27 09:18:21;;;;;;;1.52;0.45;;;11.80;99.90;;;;;;5068556;28;20041;-75
2022/09/27 09:21:04;;;;;;;0.98;0.25;;;11.70;99.90;;;;;;5066119;28;20162;-75
2022/09/27 09:23:48;;;;;;;2.60;0.47;;;11.60;99.90;;;;;;5070113;28;20042;-75
2022/09/27 09:26:16;;;;;;;2.83;0.47;;;11.50;99.90;;;;;;5064261;28;20044;-75
2022/09/27 09:28:47;;;;;;;1.42;0.40;;;11.40;99.90;;;;;;5068520;28;20516;-75
2022/09/27 09:31:41;;;;;;;1.73;0.50;;;11.30;99.90;;;;;;5087107;28;20037;-75
2022/09/27 09:34:14;;;;;;;4.97;0.70;;;11.20;99.90;;;;;;5054045;28;20098;-75
2022/09/27 09:36:55;;;;;;;1.88;0.38;;;11.20;99.90;;;;;;5070144;28;20083;-75
2022/09/27 09:39:44;;;;;;;1.30;0.25;;;11.00;99.90;;;;;;5069402;28;20107;-75
2022/09/27 09:42:34;;;;;;;1.90;0.40;;;11.00;99.90;;;;;;5069379;28;20552;-75
2022/09/27 09:45:15;;;;;;;0.10;0.10;;;10.90;99.90;;;;;;5070381;28;20067;-75
2022/09/27 09:47:50;;;;;;;2.55;0.55;;;10.90;99.90;;;;;;5061062;28;20040;-76
2022/09/27 09:50:21;;;;;;;1.48;0.60;;;10.90;99.90;;;;;;5069941;28;20419;-75
2022/09/27 09:53:15;;;;;;;1.48;0.20;;;10.90;99.90;;;;;;5070206;28;20068;-76
2022/09/27 09:55:44;;;;;;;3.25;0.60;;;10.90;99.90;;;;;;5063963;28;20542;-75
2022/09/27 09:58:22;;;;;;;0.85;0.30;;;10.90;99.90;;;;;;5069613;28;20048;-75
2022/09/27 10:00:50;;;;;;;1.00;0.40;;;11.00;99.90;;;;;;5061819;28;20076;-76
2022/09/27 10:03:16;;;;;;;2.22;0.32;;;11.00;99.90;;;;;;5063568;28;20044;-76
2022/09/27 10:05:44;;;;;;;0.38;0.22;;;11.00;99.90;;;;;;5069693;28;20119;-74
2022/09/27 10:08:20;;;;;;;1.00;0.43;;;11.10;99.90;;;;;;5070150;28;20084;-76
2022/09/27 10:10:46;;;;;;;2.83;0.45;;;11.10;99.90;;;;;;5066128;28;20032;-76
2022/09/27 10:13:16;;;;;;;1.08;0.30;;;11.20;99.90;;;;;;5069896;28;20078;-75
2022/09/27 10:15:46;;;;;;;3.60;0.47;;;11.30;99.90;;;;;;5068558;28;20055;-75
2022/09/27 10:18:18;;;;;;;1.33;0.50;;;11.40;99.90;;;;;;5068374;28;20044;-75
2022/09/27 10:20:58;;;;;;;2.50;0.57;;;11.50;99.90;;;;;;5068618;28;20498;-76
2022/09/27 10:23:25;;;;;;;1.75;0.70;;;11.60;99.90;;;;;;5069221;28;20052;-76
2022/09/27 10:25:57;;;;;;;3.95;0.85;;;11.70;99.90;;;;;;5072007;28;20036;-76
2022/09/27 10:28:36;;;;;;;4.38;0.60;;;11.80;99.90;;;;;;5069625;28;20094;-76
2022/09/27 10:31:08;;;;;;;1.88;0.50;;;11.90;99.90;;;;;;5051269;28;20037;-76
2022/09/27 10:33:38;;;;;;;0.68;0.40;;;11.90;99.90;;;;;;5059718;28;20049;-75
2022/09/27 10:36:20;;;;;;;1.65;0.40;;;11.90;99.90;;;;;;5056076;28;20045;-77
2022/09/27 10:38:50;;;;;;;;;;;11.90;99.90;;;;;;5061847;28;20052;-76
2022/09/27 10:41:30;;;;;;;1.60;0.47;;;11.90;99.90;;;;;;5065265;28;20003;-76
2022/09/27 10:43:56;;;;;;;2.80;0.68;;;12.00;99.90;;;;;;5063163;28;20048;-76
2022/09/27 10:46:26;;;;;;;4.18;0.65;;;12.10;99.90;;;;;;5066848;28;20448;-76
2022/09/27 10:49:31;;;;;;;1.45;0.30;;;12.20;99.90;;;;;;5065769;28;20044;-75
2022/09/27 10:52:03;;;;;;;0.70;0.22;;;12.10;99.90;;;;;;5066198;28;20044;-76
2022/09/27 10:54:32;;;;;;;0.50;0.20;;;11.90;99.90;;;;;;5063774;28;20045;-75
2022/09/27 10:57:12;;;;;;;1.13;0.20;;;11.90;99.90;;;;;;5061955;28;20051;-75
2022/09/27 10:59:40;;;;;;;1.20;0.20;;;11.70;99.90;;;;;;5060288;28;20048;-75
2022/09/27 11:02:20;;;;;;;1.90;0.20;;;11.60;99.90;;;;;;5072458;28;20032;-75
2022/09/27 11:05:03;;;;;;;0.25;0.10;;;11.60;99.90;;;;;;5073450;28;20041;-74
2022/09/27 11:07:29;;;;;;;0.65;0.00;;;11.50;99.90;;;;;;5064429;28;20120;-75
2022/09/27 11:10:01;;;;;;;1.05;0.15;;;11.50;99.90;;;;;;5072541;28;20119;-75
2022/09/27 11:12:29;;;;;;;;;;;11.50;99.90;;;;;;5067467;28;20093;-75
2022/09/27 11:14:56;;;;;;;2.28;0.10;;;11.50;99.90;;;;;;5071985;28;20378;-75
2022/09/27 11:17:31;;;;;;;0.40;0.30;;;11.50;99.90;;;;;;5070671;28;20499;-75
2022/09/27 11:20:07;;;;;;;0.88;0.10;;;11.40;99.90;;;;;;5070789;28;20463;-76
2022/09/27 11:22:42;;;;;;;0.45;0.20;;;11.40;99.90;;;;;;5070687;28;20037;-76
2022/09/27 11:25:38;;;;;;;1.30;0.30;;;11.40;99.90;;;;;;5054280;28;20051;-76
2022/09/27 11:28:19;;;;;;;0.68;0.20;;;11.40;99.90;;;;;;5070281;28;20045;-75
2022/09/27 11:31:02;;;;;;;0.85;0.20;;;11.40;99.90;;;;;;5066952;28;20055;-76
2022/09/27 11:33:40;;;;;;;1.25;0.30;;;11.50;99.90;;;;;;5070956;28;20032;-76
2022/09/27 11:36:16;;;;;;;0.65;0.10;;;11.40;99.90;;;;;;5068300;28;20499;-77
2022/09/27 11:39:02;;;;;;;1.00;0.20;;;11.50;99.90;;;;;;5067218;28;20127;-76
2022/09/27 11:41:49;;;;;;;0.63;0.10;;;11.50;99.90;;;;;;5064453;28;20035;-76
2022/09/27 11:44:37;;;;;;;0.73;0.17;;;11.50;99.90;;;;;;5062853;28;20040;-76
2022/09/27 11:47:15;;;;;;;0.15;0.10;;;11.60;99.90;;;;;;5072776;28;20048;-77
2022/09/27 11:49:50;;;;;;;1.25;0.25;;;11.60;99.90;;;;;;5066182;28;20033;-77
2022/09/27 11:52:52;;;;;;;0.95;0.20;;;11.60;99.90;;;;;;5086575;28;20057;-77
2022/09/27 11:55:31;;;;;;;1.63;0.40;;;11.70;99.90;;;;;;5064939;28;20525;-77
2022/09/27 11:58:32;;;;;;;3.33;0.30;;;11.70;99.90;;;;;;5069531;28;20072;-74
2022/09/27 12:01:28;;;;;;;0.65;0.20;;;11.70;99.90;;;;;;5070020;28;20036;-77
2022/09/27 12:03:53;;;;;;;1.17;0.45;;;11.80;99.90;;;;;;5055822;28;20032;-76
2022/09/27 12:06:41;;;;;;;4.75;0.60;;;11.80;99.90;;;;;;5068465;28;20091;-76
2022/09/27 12:09:12;;;;;;;3.15;0.50;;;11.90;99.90;;;;;;5071215;28;20046;-77
2022/09/27 12:11:50;;;;;;;0.98;0.50;;;11.90;99.90;;;;;;5070934;28;20033;-76
2022/09/27 12:14:21;;;;;;;3.78;1.13;;;12.00;99.90;;;;;;5064337;28;20033;-76
2022/09/27 12:16:51;;;;;;;4.32;0.68;;;12.10;99.90;;;;;;5070695;28;20051;-77
2022/09/27 12:19:25;;;;;;;4.18;0.65;;;12.20;99.90;;;;;;5063844;28;20048;-77
2022/09/27 12:21:53;;;;;;;2.47;0.65;;;12.20;99.90;;;;;;5070457;28;20097;-77
2022/09/27 12:24:23;;;;;;;2.65;0.40;;;12.20;99.90;;;;;;5069923;28;20044;-76
2022/09/27 12:26:57;;;;;;;3.38;0.70;;;12.20;99.90;;;;;;5070079;28;20398;-77
2022/09/27 12:29:32;;;;;;;4.28;0.60;;;12.30;99.90;;;;;;5070343;28;20075;-76
2022/09/27 12:32:21;;;;;;;2.22;0.68;;;12.40;99.90;;;;;;5067945;28;20028;-75
2022/09/27 12:35:10;;;;;;;3.58;0.82;;;12.40;99.90;;;;;;5070244;28;20379;-76
2022/09/27 12:37:52;;;;;;;2.95;0.70;;;12.40;99.90;;;;;;5070243;28;20040;-76
2022/09/27 12:40:23;;;;;;;2.63;0.43;;;12.40;99.90;;;;;;5070501;28;20038;-76
2022/09/27 12:42:54;;;;;;;2.35;0.50;;;12.50;99.90;;;;;;5065570;28;20126;-76
2022/09/27 12:45:58;;;;;;;2.13;0.35;;;12.50;99.90;;;;;;5064169;28;20036;-75
2022/09/27 12:48:49;;;;;;;2.38;0.50;;;12.60;99.90;;;;;;5059022;28;20127;-74
2022/09/27 12:51:19;;;;;;;2.03;0.40;;;12.60;99.90;;;;;;5053593;28;20037;-75
2022/09/27 12:54:07;;;;;;;1.13;0.52;;;12.60;99.90;;;;;;5070015;28;20048;-77
2022/09/27 12:56:51;;;;;;;2.08;0.55;;;12.60;99.90;;;;;;5054808;28;20379;-77
2022/09/27 12:59:51;;;;;;;4.13;0.75;;;12.50;99.90;;;;;;5068456;28;20032;-78
2022/09/27 13:02:44;;;;;;;2.85;0.60;;;12.40;99.90;;;;;;5065095;28;20123;-77
2022/09/27 13:05:21;;;;;;;1.33;0.45;;;12.20;99.90;;;;;;5065178;28;20517;-77
2022/09/27 13:08:11;;;;;;;1.48;0.40;;;12.10;99.90;;;;;;5068427;28;20048;-76
2022/09/27 13:10:49;;;;;;;1.08;0.40;;;11.90;99.90;;;;;;5069834;28;20498;-76
2022/09/27 13:13:20;;;;;;;0.75;0.43;;;11.90;99.90;;;;;;5065574;28;20487;-76
2022/09/27 13:15:46;;;;;;;3.10;0.77;;;11.90;99.90;;;;;;5060104;28;20487;-76
2022/09/27 13:18:33;;;;;;;1.98;0.47;;;11.90;99.90;;;;;;5068914;28;20124;-77
2022/09/27 13:20:59;;;;;;;2.13;0.63;;;11.90;99.90;;;;;;5062627;28;20091;-77
2022/09/27 13:23:28;;;;;;;4.00;0.73;;;11.90;99.90;;;;;;5062325;28;20465;-77
2022/09/27 13:25:56;;;;;;;2.33;0.80;;;11.80;99.90;;;;;;5067150;28;20059;-75